createdAt,value
2024-01-12T08:56:57.374Z,70.24
2024-01-12T08:59:25.017Z,69.97
2024-01-12T09:01:52.597Z,69.52
2024-01-12T09:04:20.242Z,69.68
2024-01-12T09:06:47.988Z,68.87
2024-01-12T09:09:15.586Z,68.85
2024-01-12T09:11:43.216Z,68.23
2024-01-12T09:14:10.889Z,68.43
2024-01-12T09:16:38.696Z,67.85
2024-01-12T09:19:06.364Z,67.48
2024-01-12T09:21:33.988Z,67.75
2024-01-12T09:24:02.017Z,67.62
2024-01-12T09:26:29.878Z,67.88
2024-01-12T09:28:57.407Z,67.55
2024-01-12T09:31:25.241Z,68.10
2024-01-12T09:33:54.422Z,67.59
2024-01-12T09:36:22.108Z,67.35
2024-01-12T09:38:49.706Z,67.35
2024-01-12T09:41:49.099Z,66.88
2024-01-12T09:44:22.072Z,66.71
2024-01-12T09:47:00.325Z,67.16
2024-01-12T09:49:32.685Z,66.76
2024-01-12T09:52:05.377Z,66.37
2024-01-12T09:54:32.860Z,66.82
2024-01-12T09:57:00.817Z,67.23
2024-01-12T09:59:29.158Z,66.97
2024-01-12T10:01:59.810Z,66.08
2024-01-12T10:04:28.323Z,66.10
2024-01-12T10:06:56.517Z,65.80
2024-01-12T10:09:26.566Z,66.01
2024-01-12T10:12:01.087Z,64.72
2024-01-12T10:14:28.839Z,64.38
2024-01-12T10:17:02.208Z,64.02
2024-01-12T10:19:30.590Z,64.46
2024-01-12T10:21:58.429Z,63.16
2024-01-12T10:24:26.003Z,63.40
2024-01-12T10:26:54.236Z,62.30
2024-01-12T10:29:22.154Z,63.02
2024-01-12T10:31:49.945Z,63.49
2024-01-12T10:34:18.215Z,61.74
2024-01-12T10:36:55.124Z,63.18
2024-01-12T10:39:24.120Z,61.96
2024-01-12T10:41:53.450Z,61.98
2024-01-12T10:44:27.501Z,61.51
2024-01-12T10:47:04.357Z,61.31
2024-01-12T10:49:52.298Z,60.87
2024-01-12T10:52:56.009Z,60.20
2024-01-12T10:55:27.834Z,60.09
2024-01-12T10:57:56.076Z,58.94
2024-01-12T11:00:23.673Z,58.36
2024-01-12T11:02:51.664Z,59.70
2024-01-12T11:05:22.331Z,59.64
2024-01-12T11:07:51.090Z,59.95
2024-01-12T11:10:21.155Z,58.93
2024-01-12T11:12:52.019Z,58.99
2024-01-12T11:15:20.764Z,58.87
2024-01-12T11:17:48.568Z,58.21
2024-01-12T11:20:22.288Z,58.08
2024-01-12T11:22:51.299Z,58.33
2024-01-12T11:25:21.770Z,57.64
2024-01-12T11:27:53.009Z,56.55
2024-01-12T11:30:24.149Z,57.13
2024-01-12T11:33:08.336Z,57.45
2024-01-12T11:35:38.643Z,57.07
2024-01-12T11:38:11.647Z,56.92
2024-01-12T11:40:39.730Z,56.73
2024-01-12T11:43:07.785Z,56.04
2024-01-12T11:45:35.670Z,57.45
2024-01-12T11:48:05.325Z,57.18
2024-01-12T11:50:33.336Z,58.13
2024-01-12T11:53:02.632Z,57.29
2024-01-12T11:55:31.804Z,58.50
2024-01-12T11:57:59.435Z,58.78
2024-01-12T12:00:27.295Z,59.23
2024-01-12T12:02:58.088Z,59.19
2024-01-12T12:05:27.335Z,58.80
2024-01-12T12:07:55.245Z,59.19
2024-01-12T12:10:32.883Z,59.54
2024-01-12T12:13:11.006Z,60.09
2024-01-12T12:15:38.511Z,60.66
2024-01-12T12:18:07.903Z,60.69
2024-01-12T12:20:35.942Z,60.93
2024-01-12T12:23:03.754Z,61.86
2024-01-12T12:25:31.364Z,62.67
2024-01-12T12:27:58.933Z,62.34
2024-01-12T12:30:31.190Z,61.83
2024-01-12T12:33:01.062Z,61.11
2024-01-12T12:35:29.010Z,61.68
2024-01-12T12:38:03.079Z,61.67
2024-01-12T12:40:32.945Z,61.46
2024-01-12T12:43:01.156Z,61.55
2024-01-12T12:45:28.892Z,61.67
2024-01-12T12:47:58.559Z,60.72
2024-01-12T12:50:26.905Z,61.17
2024-01-12T12:52:54.511Z,61.54
2024-01-12T12:55:22.067Z,61.47
2024-01-12T12:57:51.756Z,60.98
2024-01-12T13:00:19.922Z,62.35
2024-01-12T13:02:47.436Z,62.41
2024-01-12T13:05:17.301Z,63.51
2024-01-12T13:07:44.874Z,63.96
2024-01-12T13:10:12.361Z,63.99
2024-01-12T13:12:40.627Z,63.63
2024-01-12T13:15:10.326Z,63.20
2024-01-12T13:17:38.007Z,62.43
2024-01-12T13:20:06.644Z,61.70
2024-01-12T13:22:34.246Z,61.92
2024-01-12T13:25:01.764Z,61.88
2024-01-12T13:27:29.385Z,61.98
2024-01-12T13:29:56.879Z,62.70
2024-01-12T13:32:24.974Z,63.15
2024-01-12T13:34:52.742Z,63.72
2024-01-12T13:37:20.470Z,62.84
2024-01-12T13:39:47.960Z,63.02
2024-01-12T13:42:15.742Z,63.64
2024-01-12T13:44:43.754Z,63.74
2024-01-12T13:47:11.382Z,63.02
2024-01-12T13:49:38.971Z,63.41
2024-01-12T13:52:06.787Z,62.98
2024-01-12T13:54:34.283Z,63.02
2024-01-12T13:57:01.875Z,62.74
2024-01-12T13:59:29.437Z,63.43
2024-01-12T14:01:57.614Z,63.08
2024-01-12T14:04:25.428Z,62.66
2024-01-12T14:06:53.975Z,62.66
2024-01-12T14:09:21.649Z,63.21
2024-01-12T14:11:49.434Z,63.09
2024-01-12T14:14:16.997Z,62.95
2024-01-12T14:16:44.544Z,62.73
2024-01-12T14:19:13.036Z,62.47
2024-01-12T14:21:40.659Z,62.38
2024-01-12T14:24:12.594Z,62.98
2024-01-12T14:26:40.929Z,62.98
2024-01-12T14:29:09.685Z,63.25
2024-01-12T14:31:37.562Z,63.29
2024-01-12T14:34:05.756Z,64.10
2024-01-12T14:36:33.889Z,63.73
2024-01-12T14:39:01.421Z,63.53
2024-01-12T14:41:29.364Z,63.53
2024-01-12T14:43:57.384Z,63.76
2024-01-12T14:46:25.078Z,64.14
2024-01-12T14:48:52.970Z,63.53
2024-01-12T14:51:20.669Z,63.77
2024-01-12T14:53:49.238Z,63.49
2024-01-12T14:56:17.617Z,63.65
2024-01-12T14:58:45.254Z,63.92
2024-01-12T15:01:12.820Z,63.24
2024-01-12T15:03:41.705Z,63.41
2024-01-12T15:06:09.486Z,62.89
2024-01-12T15:08:39.670Z,63.18
2024-01-12T15:11:07.381Z,63.31
2024-01-12T15:13:35.190Z,63.85
2024-01-12T15:16:02.963Z,63.63
2024-01-12T15:18:30.714Z,64.05
2024-01-12T15:20:58.677Z,64.11
2024-01-12T15:23:27.462Z,64.56
2024-01-12T15:25:58.042Z,64.19
2024-01-12T15:28:25.701Z,64.67
2024-01-12T15:30:53.364Z,64.82
2024-01-12T15:33:21.455Z,64.72
2024-01-12T15:35:49.298Z,64.88
2024-01-12T15:38:16.863Z,64.65
2024-01-12T15:40:44.450Z,64.77
2024-01-12T15:43:11.907Z,65.02
2024-01-12T15:45:40.346Z,64.97
2024-01-12T15:48:09.245Z,65.01
2024-01-12T15:50:37.025Z,64.88
2024-01-12T15:53:05.669Z,64.96
2024-01-12T15:55:33.170Z,65.51
2024-01-12T15:58:00.650Z,65.57
2024-01-12T16:00:28.410Z,65.53
2024-01-12T16:02:55.955Z,65.63
2024-01-12T16:05:24.420Z,65.80
2024-01-12T16:07:54.963Z,65.95
2024-01-12T16:10:22.489Z,65.85
2024-01-12T16:12:50.134Z,65.77
2024-01-12T16:15:18.084Z,66.18
2024-01-12T16:17:45.894Z,66.53
2024-01-12T16:20:13.707Z,67.21
2024-01-12T16:22:41.456Z,67.08
2024-01-12T16:25:10.057Z,66.65
2024-01-12T16:27:37.732Z,67.38
2024-01-12T16:30:06.923Z,67.49
2024-01-12T16:32:35.598Z,67.84
2024-01-12T16:35:03.523Z,67.78
2024-01-12T16:37:31.071Z,67.98
2024-01-12T16:39:58.589Z,68.05
2024-01-12T16:42:26.488Z,67.24
2024-01-12T16:44:56.659Z,67.59
2024-01-12T16:47:25.560Z,67.75
2024-01-12T16:49:53.236Z,67.10
2024-01-12T16:52:20.827Z,67.16
2024-01-12T16:54:48.595Z,67.91
2024-01-12T16:57:16.221Z,67.54
2024-01-12T16:59:43.813Z,67.80
2024-01-12T17:02:12.293Z,67.77
2024-01-12T17:04:39.834Z,67.72
2024-01-12T17:07:07.499Z,67.62
2024-01-12T17:09:35.005Z,67.33
2024-01-12T17:12:02.560Z,67.72
2024-01-12T17:14:30.237Z,67.57
2024-01-12T17:16:57.722Z,67.33
2024-01-12T17:19:26.120Z,67.69
2024-01-12T17:21:56.067Z,68.18
2024-01-12T17:24:23.597Z,67.88
2024-01-12T17:26:51.092Z,67.97
2024-01-12T17:29:20.059Z,68.34
2024-01-12T17:31:50.121Z,68.18
2024-01-12T17:34:18.739Z,67.79
2024-01-12T17:36:49.877Z,67.91
2024-01-12T17:39:18.254Z,68.47
2024-01-12T17:41:46.758Z,68.24
2024-01-12T17:44:14.518Z,68.64
2024-01-12T17:46:42.042Z,68.62
2024-01-12T17:49:09.750Z,68.34
2024-01-12T17:51:40.673Z,68.20
2024-01-12T17:54:08.281Z,69.06
2024-01-12T17:56:38.682Z,68.94
2024-01-12T17:59:06.463Z,68.64
2024-01-12T18:01:33.988Z,68.71
2024-01-12T18:04:01.587Z,68.58
2024-01-12T18:06:29.209Z,69.19
2024-01-12T18:08:58.153Z,69.24
2024-01-12T18:11:25.780Z,69.21
2024-01-12T18:13:53.285Z,69.47
2024-01-12T18:16:20.774Z,69.42
2024-01-12T18:18:48.437Z,69.39
2024-01-12T18:21:16.042Z,70.33
2024-01-12T18:23:43.639Z,70.36
2024-01-12T18:26:11.202Z,70.32
2024-01-12T18:28:38.781Z,70.58
2024-01-12T18:31:06.293Z,70.58
2024-01-12T18:33:34.026Z,69.94
2024-01-12T18:36:01.778Z,70.19
2024-01-12T18:38:29.414Z,71.04
2024-01-12T18:40:56.935Z,70.53
2024-01-12T18:43:24.403Z,71.19
